createdAt,value
2022-07-28T00:01:29.218Z,100429.22
2022-07-28T00:03:56.431Z,100426.88
2022-07-28T00:06:23.970Z,100428.56
2022-07-28T00:08:51.285Z,100422.00
2022-07-28T00:11:18.526Z,100424.00
2022-07-28T00:13:46.055Z,100417.63
2022-07-28T00:16:14.738Z,100425.53
2022-07-28T00:18:41.874Z,100423.69
2022-07-28T00:21:09.603Z,100418.81
2022-07-28T00:23:39.221Z,100423.69
2022-07-28T00:26:08.059Z,100424.34
2022-07-28T00:28:36.054Z,100415.41
2022-07-28T00:31:04.985Z,100415.59
2022-07-28T00:33:35.957Z,100421.44
2022-07-28T00:36:04.071Z,100415.19
2022-07-28T00:38:31.283Z,100419.44
2022-07-28T00:40:58.910Z,100415.53
2022-07-28T00:43:26.357Z,100413.34
2022-07-28T00:45:53.519Z,100417.75
2022-07-28T00:48:20.702Z,100413.84
2022-07-28T00:50:49.631Z,100414.69
2022-07-28T00:53:17.414Z,100408.16
2022-07-28T00:56:05.367Z,100412.91
2022-07-28T00:58:32.419Z,100407.00
2022-07-28T01:00:59.654Z,100407.97
2022-07-28T01:03:28.221Z,100409.69
2022-07-28T01:06:05.376Z,100414.91
2022-07-28T01:08:41.394Z,100423.63
2022-07-28T01:11:17.344Z,100421.06
2022-07-28T01:13:54.280Z,100420.88
2022-07-28T01:16:22.522Z,100424.00
2022-07-28T01:18:57.557Z,100429.31
2022-07-28T01:21:32.755Z,100423.59
2022-07-28T01:24:14.173Z,100425.81
2022-07-28T01:26:59.728Z,100424.34
2022-07-28T01:29:57.785Z,100427.78
2022-07-28T01:32:28.708Z,100432.13
2022-07-28T01:35:00.726Z,100430.84
2022-07-28T01:37:32.766Z,100435.44
2022-07-28T01:40:03.117Z,100445.81
2022-07-28T01:42:34.128Z,100442.13
2022-07-28T01:45:02.411Z,100442.31
2022-07-28T01:47:32.998Z,100442.72
2022-07-28T01:50:06.127Z,100441.69
2022-07-28T01:52:35.795Z,100438.66
2022-07-28T01:55:03.538Z,100437.00
2022-07-28T01:57:33.320Z,100434.31
2022-07-28T02:00:01.901Z,100439.69
2022-07-28T02:02:32.163Z,100437.53
2022-07-28T02:05:01.062Z,100436.78
2022-07-28T02:07:30.332Z,100432.47
2022-07-28T02:10:00.059Z,100443.22
2022-07-28T02:12:28.230Z,100436.63
2022-07-28T02:14:58.364Z,100438.31
2022-07-28T02:17:29.548Z,100436.81
2022-07-28T02:19:59.954Z,100439.19
2022-07-28T02:22:27.826Z,100447.47
2022-07-28T02:24:56.002Z,100440.44
2022-07-28T02:27:27.250Z,100454.53
2022-07-28T02:30:03.530Z,100455.88
2022-07-28T02:32:37.842Z,100452.59
2022-07-28T02:35:16.823Z,100455.03
2022-07-28T02:37:49.883Z,100446.63
2022-07-28T02:40:20.874Z,100446.72
2022-07-28T02:42:51.287Z,100446.34
2022-07-28T02:45:22.619Z,100452.34
2022-07-28T02:47:53.285Z,100452.66
2022-07-28T02:50:24.700Z,100465.84
2022-07-28T02:52:54.206Z,100455.94
2022-07-28T02:55:21.964Z,100466.84
2022-07-28T02:57:54.626Z,100470.81
2022-07-28T03:00:25.509Z,100459.59
2022-07-28T03:02:54.917Z,100461.66
2022-07-28T03:05:24.337Z,100474.00
2022-07-28T03:07:51.953Z,100478.66
2022-07-28T03:10:33.917Z,100479.59
2022-07-28T03:13:03.340Z,100482.91
2022-07-28T03:15:31.323Z,100474.88
2022-07-28T03:17:58.885Z,100484.50
2022-07-28T03:20:27.833Z,100486.75
2022-07-28T03:22:55.094Z,100494.84
2022-07-28T03:25:28.799Z,100503.06
2022-07-28T03:27:59.371Z,100498.75
2022-07-28T03:30:31.897Z,100500.88
2022-07-28T03:33:01.564Z,100500.75
2022-07-28T03:35:32.649Z,100497.78
2022-07-28T03:38:05.655Z,100494.38
2022-07-28T03:40:33.896Z,100501.81
2022-07-28T03:43:05.103Z,100508.69
2022-07-28T03:45:33.244Z,100504.38
2022-07-28T03:48:00.908Z,100505.69
2022-07-28T03:50:31.620Z,100508.44
2022-07-28T03:53:01.042Z,100503.16
2022-07-28T03:55:28.966Z,100509.34
2022-07-28T03:57:56.285Z,100510.47
2022-07-28T04:00:24.117Z,100510.06
2022-07-28T04:02:51.899Z,100508.50
2022-07-28T04:05:20.015Z,100506.03
2022-07-28T04:07:48.703Z,100511.44
2022-07-28T04:10:17.531Z,100515.66
2022-07-28T04:12:46.487Z,100520.19
2022-07-28T04:15:13.793Z,100522.22
2022-07-28T04:17:41.440Z,100519.38
2022-07-28T04:20:09.873Z,100519.50
2022-07-28T04:22:38.000Z,100517.50
2022-07-28T04:25:08.222Z,100521.56
2022-07-28T04:27:35.741Z,100523.25
2022-07-28T04:30:03.879Z,100521.59
2022-07-28T04:32:31.489Z,100517.38
2022-07-28T04:34:58.831Z,100516.72
2022-07-28T04:37:26.323Z,100520.50
2022-07-28T04:40:00.003Z,100517.16
2022-07-28T04:42:28.751Z,100516.63
2022-07-28T04:44:55.964Z,100514.38
2022-07-28T04:47:23.509Z,100515.78
2022-07-28T04:49:50.944Z,100511.22
2022-07-28T04:52:18.449Z,100523.16
2022-07-28T04:54:46.072Z,100522.09
2022-07-28T04:57:13.378Z,100511.13
2022-07-28T04:59:43.074Z,100518.13
2022-07-28T05:02:10.801Z,100511.84
2022-07-28T05:04:39.916Z,100513.19
2022-07-28T05:07:11.954Z,100511.44
2022-07-28T05:09:40.387Z,100508.28
2022-07-28T05:12:08.332Z,100509.00
2022-07-28T05:14:35.589Z,100507.34
2022-07-28T05:17:04.560Z,100509.13
2022-07-28T05:19:31.806Z,100514.28
2022-07-28T05:21:59.074Z,100514.38
2022-07-28T05:24:26.700Z,100514.00
2022-07-28T05:26:53.913Z,100520.78
2022-07-28T05:29:21.214Z,100516.59
2022-07-28T05:31:48.957Z,100525.16
2022-07-28T05:34:17.713Z,100527.22
2022-07-28T05:36:44.947Z,100523.38
2022-07-28T05:39:12.454Z,100523.53
2022-07-28T05:41:39.692Z,100516.97
2022-07-28T05:44:06.945Z,100527.47
2022-07-28T05:46:34.423Z,100519.13
2022-07-28T05:49:01.703Z,100528.16
2022-07-28T05:51:30.217Z,100526.25
2022-07-28T05:53:57.714Z,100524.38
2022-07-28T05:56:24.957Z,100530.66
2022-07-28T05:58:52.142Z,100531.34
2022-07-28T06:01:19.815Z,100532.84
2022-07-28T06:03:58.076Z,100535.69
2022-07-28T06:06:40.977Z,100537.25
2022-07-28T06:09:12.106Z,100536.63
2022-07-28T06:11:46.569Z,100539.53
2022-07-28T06:14:19.579Z,100542.41
2022-07-28T06:16:54.065Z,100537.03
2022-07-28T06:19:29.714Z,100544.06
2022-07-28T06:22:03.916Z,100554.41
2022-07-28T06:24:32.996Z,100548.00
2022-07-28T06:27:00.516Z,100541.94
2022-07-28T06:29:27.898Z,100549.75
2022-07-28T06:31:55.421Z,100550.31
2022-07-28T06:34:23.112Z,100548.88
2022-07-28T06:36:52.669Z,100550.06
2022-07-28T06:39:29.004Z,100552.56
2022-07-28T06:41:58.994Z,100548.72
2022-07-28T06:44:42.610Z,100552.13
2022-07-28T06:47:13.718Z,100553.25
2022-07-28T06:49:41.028Z,100557.50
2022-07-28T06:52:08.439Z,100551.09
2022-07-28T06:54:37.675Z,100552.75
2022-07-28T06:57:05.135Z,100557.25
2022-07-28T06:59:32.770Z,100552.88
2022-07-28T07:02:00.380Z,100561.13
2022-07-28T07:04:27.821Z,100552.78
2022-07-28T07:06:55.536Z,100557.44
2022-07-28T07:09:23.218Z,100561.38
2022-07-28T07:11:51.852Z,100552.72
2022-07-28T07:14:19.351Z,100561.91
2022-07-28T07:16:47.098Z,100555.25
2022-07-28T07:19:16.035Z,100550.25
2022-07-28T07:21:49.697Z,100559.41
2022-07-28T07:24:30.744Z,100551.16
2022-07-28T07:27:09.076Z,100557.84
2022-07-28T07:29:41.150Z,100556.19
2022-07-28T07:32:17.182Z,100552.72
2022-07-28T07:34:48.817Z,100556.91
2022-07-28T07:37:19.671Z,100553.69
2022-07-28T07:39:49.162Z,100558.41
2022-07-28T07:42:17.991Z,100560.44
2022-07-28T07:44:50.018Z,100561.75
2022-07-28T07:47:18.254Z,100555.31
2022-07-28T07:49:46.744Z,100558.47
2022-07-28T07:52:14.356Z,100543.13
2022-07-28T07:54:42.237Z,100554.19
2022-07-28T07:57:09.916Z,100549.25
2022-07-28T07:59:46.624Z,100553.03
2022-07-28T08:04:58.732Z,100545.06
2022-07-28T08:07:36.478Z,100552.75
2022-07-28T08:10:18.080Z,100550.00
2022-07-28T08:12:45.550Z,100547.69
2022-07-28T08:15:14.311Z,100549.13
2022-07-28T08:17:41.523Z,100551.41
2022-07-28T08:20:10.367Z,100543.00
2022-07-28T08:22:47.609Z,100551.59
2022-07-28T08:25:15.169Z,100549.81
2022-07-28T08:27:42.959Z,100540.50
2022-07-28T08:30:11.678Z,100535.94
2022-07-28T08:32:41.024Z,100535.78
2022-07-28T08:35:31.657Z,100542.53
2022-07-28T08:37:56.732Z,100545.69
2022-07-28T08:40:27.451Z,100551.03
2022-07-28T08:43:06.611Z,100540.25
2022-07-28T08:45:43.767Z,100539.91
2022-07-28T08:48:27.818Z,100536.34
2022-07-28T08:51:02.826Z,100531.44
2022-07-28T08:53:31.590Z,100530.69
2022-07-28T08:56:03.278Z,100528.78
2022-07-28T08:58:31.680Z,100528.34
2022-07-28T09:00:59.862Z,100528.50
2022-07-28T09:03:29.547Z,100524.13
2022-07-28T09:05:57.653Z,100524.59
2022-07-28T09:08:25.226Z,100525.25
2022-07-28T09:10:53.159Z,100521.53
2022-07-28T09:13:20.786Z,100520.38
2022-07-28T09:15:48.191Z,100520.91
2022-07-28T09:18:17.417Z,100530.81
2022-07-28T09:20:46.582Z,100524.94
2022-07-28T09:23:43.244Z,100535.84
2022-07-28T09:26:11.532Z,100527.41
2022-07-28T09:28:50.306Z,100525.38
2022-07-28T09:31:18.702Z,100527.16
2022-07-28T09:33:57.835Z,100531.72
2022-07-28T09:36:27.951Z,100521.59
2022-07-28T09:38:55.458Z,100533.69
2022-07-28T09:41:23.623Z,100531.53
2022-07-28T09:43:55.280Z,100527.00
2022-07-28T09:46:23.271Z,100519.13
2022-07-28T09:48:56.679Z,100510.53
2022-07-28T09:51:28.051Z,100510.63
2022-07-28T09:54:08.727Z,100511.09
2022-07-28T09:56:36.680Z,100508.78
2022-07-28T09:59:04.331Z,100505.72
2022-07-28T10:01:35.803Z,100509.47
2022-07-28T10:04:04.983Z,100506.94
2022-07-28T10:06:34.570Z,100501.00
2022-07-28T10:09:04.085Z,100497.66
2022-07-28T10:11:31.865Z,100504.63
2022-07-28T10:14:03.816Z,100505.19
2022-07-28T10:16:32.765Z,100499.41
2022-07-28T10:19:02.760Z,100498.31
2022-07-28T10:21:34.637Z,100498.44
2022-07-28T10:24:05.312Z,100499.22
2022-07-28T10:26:37.499Z,100497.97
2022-07-28T10:29:06.778Z,100488.28
2022-07-28T10:31:40.892Z,100492.16
2022-07-28T10:34:16.484Z,100491.75
2022-07-28T10:36:48.601Z,100491.53
2022-07-28T10:39:21.023Z,100481.59
2022-07-28T10:41:58.342Z,100483.84
2022-07-28T10:44:37.106Z,100485.22
2022-07-28T10:47:08.034Z,100483.22
2022-07-28T10:49:37.893Z,100479.63
2022-07-28T10:52:19.716Z,100471.19
2022-07-28T10:55:03.502Z,100474.81
2022-07-28T10:57:31.865Z,100479.38
2022-07-28T11:00:12.787Z,100475.66
2022-07-28T11:02:53.430Z,100463.59
2022-07-28T11:05:36.139Z,100460.66
2022-07-28T11:08:07.691Z,100460.91
2022-07-28T11:10:46.921Z,100465.81
2022-07-28T11:13:29.032Z,100464.78
2022-07-28T11:15:57.598Z,100456.53
2022-07-28T11:18:25.234Z,100463.72
2022-07-28T11:21:09.296Z,100469.44
2022-07-28T11:23:54.919Z,100464.31
2022-07-28T11:26:34.967Z,100464.31
2022-07-28T11:29:22.592Z,100458.16
2022-07-28T11:31:57.222Z,100456.78
2022-07-28T11:34:25.476Z,100459.69
2022-07-28T11:37:00.597Z,100458.94
2022-07-28T11:39:30.890Z,100458.50
2022-07-28T11:42:27.842Z,100449.16
2022-07-28T11:45:18.135Z,100447.63
2022-07-28T11:47:45.738Z,100453.72
2022-07-28T11:50:15.007Z,100446.44
2022-07-28T11:52:53.318Z,100444.16
2022-07-28T11:55:55.561Z,100442.44
2022-07-28T11:58:24.032Z,100439.38
2022-07-28T12:01:17.489Z,100433.06
2022-07-28T12:03:49.038Z,100427.81
2022-07-28T12:06:26.197Z,100439.94
2022-07-28T12:08:58.386Z,100434.44
2022-07-28T12:11:28.859Z,100433.59
2022-07-28T12:13:59.360Z,100432.47
2022-07-28T12:16:27.124Z,100426.13
2022-07-28T12:18:54.809Z,100425.59
2022-07-28T12:21:36.002Z,100421.84
2022-07-28T12:24:04.008Z,100424.84
2022-07-28T12:26:41.031Z,100428.69
2022-07-28T12:29:12.658Z,100418.41
2022-07-28T12:31:50.554Z,100426.84
2022-07-28T12:34:19.931Z,100414.44
2022-07-28T12:36:48.238Z,100418.84
2022-07-28T12:39:16.925Z,100412.28
2022-07-28T12:41:49.032Z,100409.91
2022-07-28T12:44:16.807Z,100406.41
2022-07-28T12:46:45.625Z,100411.66
2022-07-28T12:49:20.974Z,100405.50
2022-07-28T12:51:48.446Z,100405.44
2022-07-28T12:54:16.284Z,100405.97
2022-07-28T12:57:00.080Z,100396.22
2022-07-28T12:59:32.489Z,100398.72
2022-07-28T13:01:59.987Z,100397.59
2022-07-28T13:04:43.415Z,100395.66
2022-07-28T13:07:13.608Z,100385.78
2022-07-28T13:09:42.498Z,100394.88
2022-07-28T13:12:23.420Z,100390.56
2022-07-28T13:14:53.354Z,100393.97
2022-07-28T13:17:25.195Z,100383.31
2022-07-28T13:20:03.968Z,100389.34
2022-07-28T13:22:31.439Z,100385.56
2022-07-28T13:24:59.405Z,100389.69
2022-07-28T13:27:28.963Z,100383.28
2022-07-28T13:29:56.206Z,100387.72
2022-07-28T13:32:23.898Z,100382.50
2022-07-28T13:34:51.421Z,100380.31
2022-07-28T13:37:19.550Z,100375.59
2022-07-28T13:39:52.199Z,100379.19
2022-07-28T13:42:21.520Z,100376.56
2022-07-28T13:44:52.722Z,100375.75
2022-07-28T13:47:19.965Z,100374.66
2022-07-28T13:49:47.369Z,100376.91
2022-07-28T13:52:15.049Z,100363.88
2022-07-28T13:54:42.311Z,100368.03
2022-07-28T13:57:09.672Z,100365.03
2022-07-28T13:59:38.097Z,100358.09
2022-07-28T14:02:15.499Z,100357.22
2022-07-28T14:04:46.071Z,100356.97
2022-07-28T14:07:21.087Z,100362.03
2022-07-28T14:09:49.309Z,100361.63
2022-07-28T14:12:16.631Z,100350.72
2022-07-28T14:14:47.920Z,100345.81
2022-07-28T14:17:42.674Z,100346.31
2022-07-28T14:20:06.031Z,100354.53
2022-07-28T14:22:33.753Z,100356.75
2022-07-28T14:25:01.021Z,100348.81
2022-07-28T14:27:29.336Z,100354.31
2022-07-28T14:29:57.696Z,100351.88
2022-07-28T14:32:26.460Z,100350.66
2022-07-28T14:34:54.151Z,100345.59
2022-07-28T14:37:22.459Z,100345.94
2022-07-28T14:39:49.800Z,100339.22
2022-07-28T14:42:17.086Z,100337.13
2022-07-28T14:44:44.705Z,100343.34
2022-07-28T14:47:12.246Z,100334.22
2022-07-28T14:49:57.224Z,100331.66
2022-07-28T14:52:26.376Z,100334.66
2022-07-28T14:54:54.416Z,100336.50
2022-07-28T14:57:24.444Z,100331.47
2022-07-28T15:00:12.992Z,100333.00
2022-07-28T15:02:41.067Z,100329.13
2022-07-28T15:05:10.933Z,100329.22
2022-07-28T15:07:39.298Z,100332.97
2022-07-28T15:10:07.622Z,100331.78
2022-07-28T15:12:35.022Z,100327.19
2022-07-28T15:15:02.567Z,100333.09
2022-07-28T15:17:30.041Z,100329.59
2022-07-28T15:19:57.369Z,100327.72
2022-07-28T15:22:26.732Z,100328.81
2022-07-28T15:24:54.995Z,100320.78
2022-07-28T15:27:23.088Z,100325.75
2022-07-28T15:29:52.434Z,100324.94
2022-07-28T15:32:26.313Z,100319.88
2022-07-28T15:34:56.026Z,100324.63
2022-07-28T15:37:23.639Z,100320.78
2022-07-28T15:39:52.475Z,100318.19
2022-07-28T15:42:20.056Z,100318.00
2022-07-28T15:44:47.338Z,100316.28
2022-07-28T15:47:14.722Z,100315.47
2022-07-28T15:49:42.462Z,100310.88
2022-07-28T15:52:09.815Z,100310.47
2022-07-28T15:54:37.166Z,100314.53
2022-07-28T15:57:06.417Z,100316.28
2022-07-28T15:59:49.414Z,100307.66
2022-07-28T16:02:19.234Z,100308.06
2022-07-28T16:04:48.425Z,100303.81
2022-07-28T16:07:22.389Z,100304.09
2022-07-28T16:09:50.730Z,100307.84
2022-07-28T16:12:19.355Z,100295.72
2022-07-28T16:14:47.241Z,100290.41
2022-07-28T16:17:15.979Z,100296.84
2022-07-28T16:19:50.822Z,100295.25
2022-07-28T16:22:19.338Z,100294.72
2022-07-28T16:24:47.503Z,100288.09
2022-07-28T16:27:58.468Z,100290.00
2022-07-28T16:30:27.631Z,100294.06
2022-07-28T16:32:56.146Z,100285.53
2022-07-28T16:35:23.796Z,100292.94
2022-07-28T16:37:51.326Z,100296.09
2022-07-28T16:40:18.686Z,100290.88
2022-07-28T16:42:46.271Z,100288.38
2022-07-28T16:45:31.112Z,100290.88
2022-07-28T16:47:59.247Z,100285.91
2022-07-28T16:50:26.991Z,100284.00
2022-07-28T16:55:58.413Z,100283.16
2022-07-28T16:58:26.045Z,100279.81
2022-07-28T17:00:54.815Z,100272.34
2022-07-28T17:03:23.047Z,100264.88
2022-07-28T17:05:52.281Z,100269.88
2022-07-28T17:08:19.559Z,100274.28
2022-07-28T17:10:47.295Z,100276.00
2022-07-28T17:13:14.877Z,100274.09
2022-07-28T17:15:42.295Z,100275.97
2022-07-28T17:18:12.398Z,100274.88
2022-07-28T17:20:41.089Z,100281.28
2022-07-28T17:23:08.444Z,100286.78
2022-07-28T17:25:56.568Z,100280.97
2022-07-28T17:28:23.615Z,100280.13
2022-07-28T17:30:50.998Z,100273.78
2022-07-28T17:33:19.699Z,100274.06
2022-07-28T17:35:47.310Z,100274.59
2022-07-28T17:38:14.700Z,100278.47
2022-07-28T17:40:41.967Z,100275.69
2022-07-28T17:43:09.664Z,100278.69
2022-07-28T17:45:36.989Z,100281.44
2022-07-28T17:48:04.905Z,100275.09
2022-07-28T17:50:34.147Z,100274.19
2022-07-28T17:53:01.489Z,100276.94
2022-07-28T17:55:28.793Z,100281.09
2022-07-28T17:58:09.426Z,100281.63
2022-07-28T18:00:37.487Z,100292.38
2022-07-28T18:03:11.371Z,100291.84
2022-07-28T18:05:41.003Z,100299.78
2022-07-28T18:08:08.977Z,100288.66
2022-07-28T18:10:36.888Z,100293.78
2022-07-28T18:13:04.418Z,100290.25
2022-07-28T18:15:32.116Z,100287.13
2022-07-28T18:17:59.660Z,100292.28
2022-07-28T18:20:26.963Z,100288.00
2022-07-28T18:22:56.723Z,100284.59
2022-07-28T18:25:24.229Z,100290.72
2022-07-28T18:27:51.603Z,100292.09
2022-07-28T18:30:19.166Z,100287.78
2022-07-28T18:32:46.461Z,100290.16
2022-07-28T18:35:14.581Z,100299.31
2022-07-28T18:37:45.714Z,100296.44
2022-07-28T18:40:16.835Z,100295.09
2022-07-28T18:42:45.120Z,100294.13
2022-07-28T18:45:13.938Z,100299.56
2022-07-28T18:47:45.526Z,100300.56
2022-07-28T18:50:31.091Z,100298.41
2022-07-28T18:52:59.785Z,100297.81
2022-07-28T18:55:29.419Z,100304.50
2022-07-28T18:57:56.638Z,100306.00
2022-07-28T19:00:23.887Z,100304.84
2022-07-28T19:02:51.567Z,100309.19
2022-07-28T19:05:19.195Z,100307.91
2022-07-28T19:07:46.449Z,100314.63
2022-07-28T19:10:14.444Z,100317.50
2022-07-28T19:12:43.155Z,100318.38
2022-07-28T19:15:10.876Z,100325.69
2022-07-28T19:17:38.400Z,100323.63
2022-07-28T19:20:06.682Z,100330.03
2022-07-28T19:22:33.999Z,100322.66
2022-07-28T19:25:01.750Z,100323.13
2022-07-28T19:27:30.600Z,100327.41
2022-07-28T19:29:59.835Z,100330.03
2022-07-28T19:32:27.640Z,100327.66
2022-07-28T19:34:55.048Z,100334.59
2022-07-28T19:37:22.379Z,100340.63
2022-07-28T19:39:50.108Z,100339.81
2022-07-28T19:42:17.389Z,100339.69
2022-07-28T19:44:44.764Z,100338.97
2022-07-28T19:47:13.695Z,100342.81
2022-07-28T19:49:41.190Z,100343.03
2022-07-28T19:52:08.436Z,100341.53
2022-07-28T19:54:36.131Z,100342.84
2022-07-28T19:57:10.395Z,100337.38
2022-07-28T19:59:40.102Z,100343.28
2022-07-28T20:02:07.725Z,100345.69
2022-07-28T20:04:36.580Z,100343.53
2022-07-28T20:07:04.359Z,100351.34
2022-07-28T20:09:31.610Z,100338.38
2022-07-28T20:11:58.920Z,100343.00
2022-07-28T20:14:26.504Z,100343.09
2022-07-28T20:16:54.035Z,100348.91
2022-07-28T20:19:21.340Z,100352.22
2022-07-28T20:21:50.454Z,100351.28
2022-07-28T20:24:17.937Z,100352.97
2022-07-28T20:26:46.032Z,100352.72
2022-07-28T20:29:13.755Z,100343.72
2022-07-28T20:31:41.384Z,100349.38
2022-07-28T20:34:08.713Z,100349.25
2022-07-28T20:36:36.171Z,100360.47
2022-07-28T20:39:15.978Z,100351.13
2022-07-28T20:41:52.777Z,100350.53
2022-07-28T20:44:29.906Z,100352.91
2022-07-28T20:46:57.911Z,100356.47
2022-07-28T20:49:25.269Z,100354.06
2022-07-28T20:51:52.697Z,100353.22
2022-07-28T20:54:21.881Z,100351.41
2022-07-28T20:56:49.071Z,100359.66
2022-07-28T20:59:16.739Z,100370.09
2022-07-28T21:01:44.460Z,100365.31
2022-07-28T21:04:12.358Z,100365.00
2022-07-28T21:06:39.826Z,100366.53
2022-07-28T21:09:19.037Z,100365.47
2022-07-28T21:11:47.826Z,100370.94
2022-07-28T21:14:15.189Z,100367.97
2022-07-28T21:16:43.052Z,100369.34
2022-07-28T21:19:10.286Z,100368.31
2022-07-28T21:21:37.639Z,100377.53
2022-07-28T21:24:06.036Z,100375.78
2022-07-28T21:26:33.259Z,100384.66
2022-07-28T21:29:01.922Z,100385.13
2022-07-28T21:31:29.708Z,100380.06
2022-07-28T21:33:57.169Z,100378.03
2022-07-28T21:36:24.300Z,100380.84
2022-07-28T21:38:51.799Z,100380.69
2022-07-28T21:41:19.004Z,100385.19
2022-07-28T21:43:46.251Z,100389.16
2022-07-28T21:46:15.240Z,100384.00
2022-07-28T21:48:42.618Z,100391.13
2022-07-28T21:51:18.281Z,100385.06
2022-07-28T21:53:49.859Z,100381.13
2022-07-28T21:56:17.431Z,100387.63
2022-07-28T21:58:45.741Z,100384.28
2022-07-28T22:01:15.275Z,100383.47
2022-07-28T22:03:42.471Z,100380.44
2022-07-28T22:06:09.753Z,100384.00
2022-07-28T22:08:38.110Z,100385.66
2022-07-28T22:11:06.399Z,100383.56
2022-07-28T22:13:33.757Z,100389.03
2022-07-28T22:16:01.514Z,100385.91
2022-07-28T22:18:30.272Z,100396.34
2022-07-28T22:20:57.650Z,100395.06
2022-07-28T22:23:29.042Z,100397.38
2022-07-28T22:25:57.242Z,100400.31
2022-07-28T22:28:29.953Z,100393.19
2022-07-28T22:30:58.061Z,100391.75
2022-07-28T22:33:25.640Z,100391.94
2022-07-28T22:35:54.167Z,100388.38
2022-07-28T22:38:21.632Z,100391.97
2022-07-28T22:40:48.881Z,100393.84
2022-07-28T22:43:16.034Z,100393.84
2022-07-28T22:45:50.620Z,100392.19
2022-07-28T22:48:18.708Z,100397.59
2022-07-28T22:50:46.202Z,100392.75
2022-07-28T22:53:14.781Z,100397.28
2022-07-28T22:55:41.943Z,100403.94
2022-07-28T22:58:09.421Z,100402.13
2022-07-28T23:00:36.826Z,100401.06
2022-07-28T23:03:04.522Z,100407.78
2022-07-28T23:05:32.034Z,100413.81
2022-07-28T23:07:59.247Z,100415.94
2022-07-28T23:10:29.754Z,100412.72
2022-07-28T23:12:58.702Z,100412.69
2022-07-28T23:15:40.797Z,100416.59
2022-07-28T23:18:09.524Z,100421.25
2022-07-28T23:20:36.807Z,100413.53
2022-07-28T23:23:04.034Z,100408.88
2022-07-28T23:25:33.207Z,100408.47
2022-07-28T23:28:00.365Z,100409.50
2022-07-28T23:30:27.635Z,100410.31
2022-07-28T23:32:55.284Z,100411.22
2022-07-28T23:35:22.496Z,100405.03
2022-07-28T23:37:49.775Z,100407.09
2022-07-28T23:40:17.536Z,100405.72
2022-07-28T23:42:46.162Z,100410.19
2022-07-28T23:45:13.411Z,100409.38
2022-07-28T23:47:41.076Z,100402.81
2022-07-28T23:50:09.201Z,100412.91
2022-07-28T23:52:36.474Z,100413.44
2022-07-28T23:55:04.406Z,100401.91
2022-07-28T23:57:31.791Z,100396.16
